ULLI/LED METAR and TAF weather

Enter ICAO airport designator
Station Type Date Time Source
ULLI METAR 2022/11/26 08:30 UTC NOAA

ULLI 260830Z 11007MPS 9999 SCT005 BKN040 M11/M14 Q1033 R88/190055 NOSIG RMK OBST OBSC


Station Type Date Time Source
ULLI Decoded METAR 2022/11/26 08:30 UTC NOAA

St. Peterburg, Russia (ULLI) 59-58N 030-18E 6M
Nov 26, 2022 - 03:30 AM EST / 2022.11.26 0830 UTC
Wind: from the ESE (110 degrees) at 16 MPH (14 KT):0
Visibility: greater than 7 mile(s):0
Sky conditions: mostly cloudy
Temperature: 12 F (-11 C)
Windchill: -4 F (-20 C):1
Dew Point: 6 F (-14 C)
Relative Humidity: 78%
Pressure (altimeter): 30.50 in. Hg (1033 hPa)
ob: ULLI 260830Z 11007MPS 9999 SCT005 BKN040 M11/M14 Q1033 R88/190055 NOSIG RMK OBST OBSC
cycle: 8

Station Type Date Time Source
ULLI TAF 2022/11/26 09:21 UTC NOAA

TAF TAF ULLI 260755Z 2609/2709 11003G09MPS 6000 BKN006
TEMPO 2609/2615 BKN010
TEMPO 2703/2709 1000 SHSN BKN004 BKN016CB

Example: see airport list